עמוד ראשי
תמונות לווין תחזית 10-יוםאקליםתחזית ים סופות טרופיות ברקים שדות תעופהשאלות נפוצות עלון אודות
מזג אוויר : אירופה אפריקה אמריקה הצפונית אמריקה הדרומית אסיה אוסטרליה-אוקיאניה אחרים
שפות איש קשר

סלוניקי, יוון

קו רוחב: 40-31N, קו אורך: 022-58E, גובה: 8מטר


METAR: LGTS 012220Z 12006KT 9999 SCT030 SCT060 10/04 Q0997 NOSIG
TAF: LGTS 011700Z 0118/0218 22015KT 9999 FEW030 PROB30 TEMPO 0204/0208 4000 BR FEW008 SCT025 PROB30 TEMPO 0214/0217 6000 RA SCT008 BKN020

זמן: 00:41 (22:41 UTC)

תצפית מזג אוויר נוכחית

הדו"ח נערך לפני 21דקות, בשעה 22:20 UTC
רוח 6קשר מכיוון מזרח/דרום-מזרח
טמפרטורת 10 צלסיוס
לחות 66%
לחץ 997 hPa
ראות 10 קילומטר או יותר
עננים פזורים בגובה 3000רגל
עננים פזורים בגובה 6000רגל

שנה יחידות

תחזית

הדו"ח נערך לפני 5 שעות ו 41דקות, בשעה 17:00 UTC
תחזית בתוקף מ 01 ב 18 UTC עד 02 ב 18 UTC
רוח 15קשר מכיוון דרום-מערב
ראות 10 קילומטר או יותר
מעט עננים בגובה 3000רגל
הסתברות 30% :
זמנית מ -
02 ב 04 UTC עד 02 ב 08 UTC
ראות: 4000מטר
מעט עננים בגובה 800רגל
עננים פזורים בגובה 2500רגל
אד
הסתברות 30% :
זמנית מ -
02 ב 14 UTC עד 02 ב 17 UTC
ראות: 6000מטר
עננים פזורים בגובה 800רגל
עננים בינוניים בגובה 2000רגל
גשם
המידע באתר זה מותנה של תניית פטור
מזג אוויר : אירופה אפריקה אמריקה הצפונית אמריקה הדרומית אסיה אוסטרליה-אוקיאניה אחרים
תמונות לווין תחזית 10-יוםאקליםתחזית ים סופות טרופיות ברקים שדות תעופהשאלות נפוצות שפות איש קשר עלון אודות